UKV507 EGPH-EGKK
Flight info
| Callsign | UKV507 |
|---|---|
| Flight time | 0h 58m |
| Altitude | 37000 |
| Route | GOSAM P600 FENIK L612 NAVSO DCT ADZOP DCT EGTOC DCT KEPAD L151 DISIT |
| Aircraft | A320/M-SDE3FGHIRWY/LB1 |
Departure
| Time | 2026-05-05 12:25 |
|---|---|
| Airport | Edinburgh Airport (EGPH) |
Arrival
| Time | 2026-05-05 13:23 |
|---|---|
| Airport | London Gatwick Airport (EGKK) |
| Time | Latitude | Longitude | Altitude | Speed | Heading |
|---|---|---|---|---|---|
| 2026-05-05 12:11 | 55.94653 | -3.36856 | 113 ft | 0 kts | 269° |
| 2026-05-05 12:15 | 55.94653 | -3.36820 | 113 ft | 4 kts | 278° |
| 2026-05-05 12:15 | 55.94646 | -3.36774 | 115 ft | 4 kts | 298° |
| 2026-05-05 12:15 | 55.94630 | -3.36740 | 113 ft | 4 kts | 337° |
| 2026-05-05 12:15 | 55.94619 | -3.36734 | 114 ft | 0 kts | 359° |
| 2026-05-05 12:19 | 55.94637 | -3.36734 | 113 ft | 6 kts | 359° |
| 2026-05-05 12:19 | 55.94706 | -3.36735 | 116 ft | 13 kts | 360° |
| 2026-05-05 12:20 | 55.94806 | -3.36777 | 116 ft | 15 kts | 358° |
| 2026-05-05 12:20 | 55.94897 | -3.36799 | 113 ft | 12 kts | 329° |
| 2026-05-05 12:20 | 55.94917 | -3.36920 | 115 ft | 11 kts | 247° |
| 2026-05-05 12:20 | 55.94877 | -3.37036 | 115 ft | 11 kts | 238° |
| 2026-05-05 12:21 | 55.94837 | -3.37155 | 113 ft | 11 kts | 239° |
| 2026-05-05 12:21 | 55.94796 | -3.37278 | 115 ft | 13 kts | 239° |
| 2026-05-05 12:21 | 55.94742 | -3.37434 | 111 ft | 16 kts | 237° |
| 2026-05-05 12:21 | 55.94684 | -3.37604 | 114 ft | 17 kts | 238° |
| 2026-05-05 12:22 | 55.94618 | -3.37797 | 113 ft | 19 kts | 238° |
| 2026-05-05 12:22 | 55.94549 | -3.38004 | 114 ft | 19 kts | 239° |
| 2026-05-05 12:22 | 55.94479 | -3.38208 | 114 ft | 19 kts | 239° |
| 2026-05-05 12:22 | 55.94415 | -3.38402 | 113 ft | 17 kts | 239° |
| 2026-05-05 12:23 | 55.94355 | -3.38580 | 113 ft | 16 kts | 239° |
| 2026-05-05 12:23 | 55.94300 | -3.38741 | 114 ft | 14 kts | 238° |
| 2026-05-05 12:23 | 55.94291 | -3.38866 | 114 ft | 10 kts | 311° |
| 2026-05-05 12:23 | 55.94347 | -3.38933 | 113 ft | 9 kts | 329° |
| 2026-05-05 12:24 | 55.94409 | -3.38965 | 114 ft | 10 kts | 20° |
| 2026-05-05 12:24 | 55.94451 | -3.38872 | 114 ft | 11 kts | 59° |
| 2026-05-05 12:24 | 55.94558 | -3.38554 | 112 ft | 62 kts | 59° |
| 2026-05-05 12:24 | 55.94896 | -3.37560 | 113 ft | 122 kts | 58° |
| 2026-05-05 12:25 | 55.95368 | -3.36160 | 571 ft | 134 kts | 58° |
| 2026-05-05 12:25 | 55.95860 | -3.34763 | 1332 ft | 133 kts | 56° |
| 2026-05-05 12:25 | 55.96496 | -3.33534 | 1950 ft | 141 kts | 44° |
| 2026-05-05 12:25 | 55.97273 | -3.32275 | 2262 ft | 162 kts | 44° |
| 2026-05-05 12:26 | 55.98168 | -3.30828 | 2592 ft | 186 kts | 43° |
| 2026-05-05 12:26 | 55.99186 | -3.29194 | 3110 ft | 204 kts | 40° |
| 2026-05-05 12:26 | 56.00484 | -3.28129 | 3892 ft | 214 kts | 8° |
| 2026-05-05 12:26 | 56.01965 | -3.28594 | 4665 ft | 225 kts | 332° |
| 2026-05-05 12:27 | 56.03057 | -3.30588 | 5471 ft | 231 kts | 296° |
| 2026-05-05 12:27 | 56.03280 | -3.33420 | 6369 ft | 236 kts | 263° |
| 2026-05-05 12:27 | 56.02912 | -3.36441 | 6805 ft | 259 kts | 257° |
| 2026-05-05 12:27 | 56.02447 | -3.39618 | 7548 ft | 267 kts | 257° |
| 2026-05-05 12:28 | 56.01750 | -3.42706 | 8440 ft | 273 kts | 238° |
| 2026-05-05 12:28 | 56.00330 | -3.45024 | 9318 ft | 284 kts | 211° |
| 2026-05-05 12:28 | 55.98465 | -3.46302 | 10192 ft | 290 kts | 200° |
| 2026-05-05 12:28 | 55.96458 | -3.47377 | 10540 ft | 313 kts | 200° |
| 2026-05-05 12:29 | 55.94285 | -3.48495 | 10774 ft | 337 kts | 200° |
| 2026-05-05 12:29 | 55.92002 | -3.49665 | 11130 ft | 353 kts | 199° |
| 2026-05-05 12:29 | 55.89625 | -3.50891 | 11796 ft | 358 kts | 199° |
| 2026-05-05 12:29 | 55.87223 | -3.52136 | 12521 ft | 362 kts | 200° |
| 2026-05-05 12:30 | 55.84797 | -3.53390 | 13246 ft | 365 kts | 199° |
| 2026-05-05 12:30 | 55.82336 | -3.54636 | 13981 ft | 369 kts | 199° |
| 2026-05-05 12:30 | 55.79844 | -3.55817 | 14625 ft | 372 kts | 198° |
| 2026-05-05 12:30 | 55.77323 | -3.56955 | 15266 ft | 376 kts | 197° |
| 2026-05-05 12:31 | 55.74773 | -3.58079 | 15894 ft | 378 kts | 197° |
| 2026-05-05 12:31 | 55.72207 | -3.59204 | 16489 ft | 382 kts | 197° |
| 2026-05-05 12:31 | 55.69618 | -3.60343 | 17093 ft | 385 kts | 197° |
| 2026-05-05 12:31 | 55.67012 | -3.61498 | 17699 ft | 388 kts | 197° |
| 2026-05-05 12:32 | 55.64386 | -3.62669 | 18281 ft | 391 kts | 197° |
| 2026-05-05 12:32 | 55.61740 | -3.63854 | 18780 ft | 394 kts | 197° |
| 2026-05-05 12:32 | 55.59072 | -3.65050 | 19297 ft | 396 kts | 197° |
| 2026-05-05 12:32 | 55.56392 | -3.66250 | 19795 ft | 399 kts | 197° |
| 2026-05-05 12:33 | 55.53689 | -3.67455 | 20270 ft | 402 kts | 197° |
| 2026-05-05 12:33 | 55.50967 | -3.68663 | 20752 ft | 405 kts | 197° |
| 2026-05-05 12:33 | 55.48222 | -3.69882 | 21230 ft | 408 kts | 197° |
| 2026-05-05 12:33 | 55.45465 | -3.71107 | 21690 ft | 410 kts | 196° |
| 2026-05-05 12:34 | 55.42692 | -3.72338 | 22167 ft | 412 kts | 196° |
| 2026-05-05 12:34 | 55.39902 | -3.73575 | 22636 ft | 415 kts | 196° |
| 2026-05-05 12:34 | 55.37127 | -3.74803 | 23098 ft | 418 kts | 196° |
| 2026-05-05 12:34 | 55.34303 | -3.76056 | 23554 ft | 420 kts | 196° |
| 2026-05-05 12:35 | 55.31456 | -3.77317 | 23922 ft | 423 kts | 196° |
| 2026-05-05 12:35 | 55.28598 | -3.78576 | 24293 ft | 425 kts | 196° |
| 2026-05-05 12:35 | 55.25722 | -3.79838 | 24667 ft | 427 kts | 196° |
| 2026-05-05 12:35 | 55.22785 | -3.80684 | 25017 ft | 432 kts | 183° |
| 2026-05-05 12:36 | 55.19795 | -3.80015 | 25350 ft | 438 kts | 167° |
| 2026-05-05 12:36 | 55.16871 | -3.78454 | 25730 ft | 440 kts | 165° |
| 2026-05-05 12:36 | 55.13941 | -3.76838 | 26096 ft | 442 kts | 165° |
| 2026-05-05 12:36 | 55.11002 | -3.75201 | 26453 ft | 444 kts | 165° |
| 2026-05-05 12:37 | 55.08054 | -3.73562 | 26797 ft | 446 kts | 165° |
| 2026-05-05 12:37 | 55.05092 | -3.71930 | 27132 ft | 448 kts | 165° |
| 2026-05-05 12:37 | 55.02116 | -3.70298 | 27455 ft | 449 kts | 165° |
| 2026-05-05 12:37 | 54.99128 | -3.68666 | 27774 ft | 451 kts | 165° |
| 2026-05-05 12:38 | 54.96121 | -3.67031 | 28082 ft | 453 kts | 165° |
| 2026-05-05 12:38 | 54.93106 | -3.65397 | 28387 ft | 454 kts | 166° |
| 2026-05-05 12:38 | 54.90085 | -3.63762 | 28736 ft | 455 kts | 166° |
| 2026-05-05 12:38 | 54.87056 | -3.62127 | 29056 ft | 457 kts | 166° |
| 2026-05-05 12:39 | 54.84022 | -3.60494 | 29497 ft | 455 kts | 166° |
| 2026-05-05 12:39 | 54.81001 | -3.58871 | 29926 ft | 454 kts | 166° |
| 2026-05-05 12:39 | 54.77994 | -3.57255 | 30312 ft | 453 kts | 166° |
| 2026-05-05 12:39 | 54.74986 | -3.55636 | 30665 ft | 452 kts | 166° |
| 2026-05-05 12:40 | 54.72029 | -3.54043 | 31004 ft | 451 kts | 166° |
| 2026-05-05 12:40 | 54.69032 | -3.52431 | 31336 ft | 450 kts | 166° |
| 2026-05-05 12:40 | 54.66043 | -3.50827 | 31702 ft | 449 kts | 166° |
| 2026-05-05 12:40 | 54.63065 | -3.49234 | 32061 ft | 448 kts | 166° |
| 2026-05-05 12:41 | 54.60093 | -3.47648 | 32411 ft | 447 kts | 166° |
| 2026-05-05 12:41 | 54.57125 | -3.46068 | 32749 ft | 446 kts | 166° |
| 2026-05-05 12:41 | 54.54161 | -3.44493 | 33086 ft | 446 kts | 166° |
| 2026-05-05 12:41 | 54.51196 | -3.42918 | 33418 ft | 445 kts | 166° |
| 2026-05-05 12:42 | 54.48235 | -3.41350 | 33774 ft | 444 kts | 166° |
| 2026-05-05 12:42 | 54.45278 | -3.39787 | 34106 ft | 444 kts | 166° |
| 2026-05-05 12:42 | 54.42335 | -3.38189 | 34366 ft | 444 kts | 165° |
| 2026-05-05 12:42 | 54.39401 | -3.36524 | 34630 ft | 444 kts | 164° |
| 2026-05-05 12:43 | 54.36474 | -3.34812 | 34883 ft | 445 kts | 164° |
| 2026-05-05 12:43 | 54.33548 | -3.33075 | 35120 ft | 446 kts | 163° |
| 2026-05-05 12:43 | 54.30619 | -3.31335 | 35356 ft | 446 kts | 163° |
| 2026-05-05 12:43 | 54.27679 | -3.29604 | 35586 ft | 446 kts | 164° |
| 2026-05-05 12:44 | 54.24779 | -3.27916 | 35799 ft | 447 kts | 164° |
| 2026-05-05 12:44 | 54.21834 | -3.26218 | 36019 ft | 447 kts | 164° |
| 2026-05-05 12:44 | 54.18885 | -3.24530 | 36236 ft | 447 kts | 163° |
| 2026-05-05 12:44 | 54.15935 | -3.22845 | 36431 ft | 447 kts | 163° |
| 2026-05-05 12:45 | 54.12976 | -3.21155 | 36641 ft | 448 kts | 163° |
| 2026-05-05 12:45 | 54.10022 | -3.19467 | 36832 ft | 448 kts | 163° |
| 2026-05-05 12:45 | 54.07064 | -3.17778 | 37008 ft | 449 kts | 163° |
| 2026-05-05 12:45 | 54.04091 | -3.16085 | 37048 ft | 451 kts | 163° |
| 2026-05-05 12:46 | 53.98134 | -3.12693 | 37051 ft | 452 kts | 163° |
| 2026-05-05 12:46 | 53.92169 | -3.09296 | 37058 ft | 452 kts | 163° |
| 2026-05-05 12:47 | 53.86206 | -3.05910 | 37052 ft | 452 kts | 163° |
| 2026-05-05 12:47 | 53.80242 | -3.02525 | 37060 ft | 452 kts | 163° |
| 2026-05-05 12:48 | 53.74273 | -2.99163 | 37053 ft | 452 kts | 163° |
| 2026-05-05 12:48 | 53.68304 | -2.95820 | 37055 ft | 452 kts | 163° |
| 2026-05-05 12:49 | 53.62372 | -2.92502 | 37052 ft | 452 kts | 163° |
| 2026-05-05 12:49 | 53.56403 | -2.89169 | 37058 ft | 452 kts | 163° |
| 2026-05-05 12:50 | 53.50428 | -2.85834 | 37059 ft | 452 kts | 163° |
| 2026-05-05 12:50 | 53.44451 | -2.82514 | 37059 ft | 453 kts | 163° |
| 2026-05-05 12:51 | 53.38466 | -2.79204 | 37054 ft | 453 kts | 163° |
| 2026-05-05 12:51 | 53.32488 | -2.75910 | 37054 ft | 452 kts | 163° |
| 2026-05-05 12:52 | 53.26511 | -2.72620 | 37053 ft | 452 kts | 164° |
| 2026-05-05 12:52 | 53.20526 | -2.69343 | 37052 ft | 452 kts | 163° |
| 2026-05-05 12:53 | 53.14539 | -2.66060 | 37058 ft | 452 kts | 163° |
| 2026-05-05 12:53 | 53.08596 | -2.62815 | 37060 ft | 452 kts | 163° |
| 2026-05-05 12:54 | 52.99620 | -2.57953 | 37054 ft | 452 kts | 163° |
| 2026-05-05 12:55 | 52.93632 | -2.54709 | 37045 ft | 453 kts | 162° |
| 2026-05-05 12:55 | 52.87643 | -2.51470 | 37048 ft | 453 kts | 163° |
| 2026-05-05 12:56 | 52.81680 | -2.48082 | 37047 ft | 454 kts | 156° |
| 2026-05-05 12:56 | 52.76275 | -2.42706 | 37048 ft | 455 kts | 147° |
| 2026-05-05 12:56 | 52.73648 | -2.39790 | 36877 ft | 455 kts | 147° |
| 2026-05-05 12:57 | 52.71019 | -2.36886 | 36607 ft | 454 kts | 147° |
| 2026-05-05 12:57 | 52.68399 | -2.34004 | 36349 ft | 452 kts | 147° |
| 2026-05-05 12:57 | 52.65784 | -2.31135 | 36094 ft | 451 kts | 147° |
| 2026-05-05 12:57 | 52.63170 | -2.28269 | 35840 ft | 450 kts | 147° |
| 2026-05-05 12:58 | 52.60565 | -2.25416 | 35591 ft | 450 kts | 146° |
| 2026-05-05 12:58 | 52.57964 | -2.22569 | 35339 ft | 449 kts | 146° |
| 2026-05-05 12:58 | 52.55357 | -2.19718 | 34575 ft | 453 kts | 146° |
| 2026-05-05 12:58 | 52.52726 | -2.16846 | 33635 ft | 456 kts | 146° |
| 2026-05-05 12:59 | 52.50070 | -2.13947 | 32726 ft | 458 kts | 147° |
| 2026-05-05 12:59 | 52.47469 | -2.11115 | 32383 ft | 438 kts | 147° |
| 2026-05-05 12:59 | 52.44969 | -2.08400 | 31668 ft | 425 kts | 147° |
| 2026-05-05 13:00 | 52.40149 | -2.03184 | 29981 ft | 411 kts | 148° |
| 2026-05-05 13:00 | 52.37781 | -2.00622 | 29016 ft | 404 kts | 148° |
| 2026-05-05 13:01 | 52.30880 | -1.93182 | 26235 ft | 388 kts | 148° |
| 2026-05-05 13:01 | 52.28643 | -1.90774 | 25360 ft | 383 kts | 148° |
| 2026-05-05 13:01 | 52.26429 | -1.88391 | 24509 ft | 378 kts | 148° |
| 2026-05-05 13:01 | 52.24246 | -1.86044 | 23698 ft | 374 kts | 149° |
| 2026-05-05 13:02 | 52.22088 | -1.83727 | 22789 ft | 370 kts | 149° |
| 2026-05-05 13:02 | 52.19958 | -1.81445 | 22063 ft | 361 kts | 149° |
| 2026-05-05 13:02 | 52.17900 | -1.79241 | 21630 ft | 347 kts | 148° |
| 2026-05-05 13:02 | 52.15899 | -1.77100 | 21204 ft | 342 kts | 148° |
| 2026-05-05 13:03 | 52.13914 | -1.74979 | 20764 ft | 341 kts | 148° |
| 2026-05-05 13:03 | 52.11935 | -1.72878 | 20340 ft | 339 kts | 148° |
| 2026-05-05 13:03 | 52.09991 | -1.70819 | 19936 ft | 338 kts | 149° |
| 2026-05-05 13:03 | 52.08036 | -1.68744 | 19641 ft | 334 kts | 149° |
| 2026-05-05 13:04 | 52.06095 | -1.66679 | 19365 ft | 332 kts | 148° |
| 2026-05-05 13:04 | 52.04164 | -1.64625 | 19076 ft | 331 kts | 148° |
| 2026-05-05 13:04 | 52.02238 | -1.62575 | 18768 ft | 331 kts | 148° |
| 2026-05-05 13:04 | 52.00314 | -1.60532 | 18461 ft | 329 kts | 148° |
| 2026-05-05 13:05 | 51.98396 | -1.58502 | 18188 ft | 329 kts | 148° |
| 2026-05-05 13:05 | 51.96475 | -1.56475 | 17884 ft | 329 kts | 148° |
| 2026-05-05 13:05 | 51.94560 | -1.54454 | 17580 ft | 327 kts | 148° |
| 2026-05-05 13:05 | 51.92656 | -1.52445 | 17290 ft | 326 kts | 148° |
| 2026-05-05 13:06 | 51.90758 | -1.50443 | 17003 ft | 325 kts | 148° |
| 2026-05-05 13:06 | 51.88868 | -1.48451 | 16704 ft | 324 kts | 148° |
| 2026-05-05 13:06 | 51.86982 | -1.46464 | 16416 ft | 322 kts | 148° |
| 2026-05-05 13:06 | 51.85104 | -1.44486 | 16135 ft | 321 kts | 148° |
| 2026-05-05 13:07 | 51.83240 | -1.42525 | 15862 ft | 319 kts | 148° |
| 2026-05-05 13:07 | 51.81385 | -1.40576 | 15580 ft | 318 kts | 148° |
| 2026-05-05 13:07 | 51.80159 | -1.39290 | 15396 ft | 317 kts | 147° |
| 2026-05-05 13:07 | 51.78315 | -1.37362 | 15121 ft | 315 kts | 147° |
| 2026-05-05 13:08 | 51.76483 | -1.35453 | 14963 ft | 313 kts | 147° |
| 2026-05-05 13:08 | 51.74651 | -1.33547 | 14692 ft | 312 kts | 147° |
| 2026-05-05 13:08 | 51.72243 | -1.31038 | 14336 ft | 310 kts | 146° |
| 2026-05-05 13:08 | 51.70432 | -1.29154 | 14099 ft | 310 kts | 146° |
| 2026-05-05 13:09 | 51.69210 | -1.27882 | 13951 ft | 310 kts | 146° |
| 2026-05-05 13:09 | 51.67404 | -1.25999 | 13728 ft | 309 kts | 146° |
| 2026-05-05 13:09 | 51.65600 | -1.24118 | 13493 ft | 308 kts | 146° |
| 2026-05-05 13:09 | 51.63802 | -1.22246 | 13247 ft | 307 kts | 146° |
| 2026-05-05 13:10 | 51.62009 | -1.20383 | 13000 ft | 306 kts | 146° |
| 2026-05-05 13:10 | 51.60221 | -1.18533 | 12777 ft | 305 kts | 147° |
| 2026-05-05 13:10 | 51.58463 | -1.16715 | 12545 ft | 304 kts | 147° |
| 2026-05-05 13:10 | 51.56666 | -1.14856 | 12308 ft | 303 kts | 146° |
| 2026-05-05 13:11 | 51.54898 | -1.13024 | 12075 ft | 302 kts | 146° |
| 2026-05-05 13:11 | 51.53139 | -1.11199 | 11847 ft | 300 kts | 146° |
| 2026-05-05 13:11 | 51.51411 | -1.09406 | 11625 ft | 300 kts | 146° |
| 2026-05-05 13:11 | 51.49657 | -1.07598 | 11391 ft | 300 kts | 146° |
| 2026-05-05 13:12 | 51.47901 | -1.05793 | 11165 ft | 299 kts | 146° |
| 2026-05-05 13:12 | 51.46156 | -1.03999 | 10946 ft | 298 kts | 146° |
| 2026-05-05 13:12 | 51.44414 | -1.02208 | 10721 ft | 297 kts | 146° |
| 2026-05-05 13:12 | 51.42675 | -1.00420 | 10452 ft | 296 kts | 146° |
| 2026-05-05 13:13 | 51.40942 | -0.98640 | 10187 ft | 294 kts | 147° |
| 2026-05-05 13:13 | 51.39223 | -0.96876 | 9922 ft | 293 kts | 147° |
| 2026-05-05 13:13 | 51.37511 | -0.95120 | 9636 ft | 292 kts | 147° |
| 2026-05-05 13:13 | 51.35804 | -0.93375 | 9340 ft | 290 kts | 147° |
| 2026-05-05 13:14 | 51.34110 | -0.91647 | 9045 ft | 288 kts | 147° |
| 2026-05-05 13:14 | 51.32425 | -0.89926 | 8774 ft | 286 kts | 147° |
| 2026-05-05 13:14 | 51.30761 | -0.88222 | 8497 ft | 283 kts | 147° |
| 2026-05-05 13:14 | 51.29103 | -0.86525 | 8202 ft | 282 kts | 147° |
| 2026-05-05 13:15 | 51.27453 | -0.84840 | 7916 ft | 281 kts | 147° |
| 2026-05-05 13:15 | 51.25811 | -0.83172 | 7644 ft | 279 kts | 147° |
| 2026-05-05 13:15 | 51.24176 | -0.81512 | 7371 ft | 278 kts | 147° |
| 2026-05-05 13:15 | 51.22551 | -0.79863 | 7099 ft | 276 kts | 147° |
| 2026-05-05 13:16 | 51.20931 | -0.78217 | 6831 ft | 275 kts | 146° |
| 2026-05-05 13:16 | 51.19321 | -0.76579 | 6560 ft | 274 kts | 146° |
| 2026-05-05 13:16 | 51.17789 | -0.74873 | 6294 ft | 271 kts | 134° |
| 2026-05-05 13:16 | 51.16711 | -0.72478 | 6034 ft | 266 kts | 118° |
| 2026-05-05 13:17 | 51.15833 | -0.69891 | 5760 ft | 265 kts | 116° |
| 2026-05-05 13:17 | 51.14972 | -0.67343 | 5498 ft | 258 kts | 116° |
| 2026-05-05 13:17 | 51.14128 | -0.64859 | 5247 ft | 252 kts | 116° |
| 2026-05-05 13:17 | 51.13306 | -0.62434 | 4986 ft | 245 kts | 116° |
| 2026-05-05 13:18 | 51.12511 | -0.60086 | 4732 ft | 238 kts | 116° |
| 2026-05-05 13:18 | 51.11731 | -0.57788 | 4466 ft | 234 kts | 116° |
| 2026-05-05 13:18 | 51.10954 | -0.55545 | 4208 ft | 229 kts | 116° |
| 2026-05-05 13:18 | 51.10368 | -0.53249 | 3936 ft | 221 kts | 97° |
| 2026-05-05 13:19 | 51.10365 | -0.50864 | 3676 ft | 213 kts | 76° |
| 2026-05-05 13:19 | 51.10686 | -0.48571 | 3431 ft | 212 kts | 75° |
| 2026-05-05 13:19 | 51.11012 | -0.46282 | 3198 ft | 211 kts | 75° |
| 2026-05-05 13:19 | 51.11329 | -0.44033 | 3085 ft | 204 kts | 74° |
| 2026-05-05 13:20 | 51.11637 | -0.41843 | 2883 ft | 203 kts | 75° |
| 2026-05-05 13:20 | 51.11946 | -0.39640 | 2615 ft | 203 kts | 75° |
| 2026-05-05 13:20 | 51.12248 | -0.37483 | 2355 ft | 197 kts | 75° |
| 2026-05-05 13:20 | 51.12539 | -0.35395 | 2118 ft | 189 kts | 74° |
| 2026-05-05 13:21 | 51.12815 | -0.33418 | 1842 ft | 179 kts | 74° |
| 2026-05-05 13:21 | 51.13075 | -0.31551 | 1602 ft | 168 kts | 74° |
| 2026-05-05 13:21 | 51.13319 | -0.29796 | 1391 ft | 158 kts | 73° |
| 2026-05-05 13:21 | 51.13550 | -0.28131 | 1160 ft | 150 kts | 73° |
| 2026-05-05 13:22 | 51.13777 | -0.26559 | 942 ft | 143 kts | 74° |
| 2026-05-05 13:22 | 51.13986 | -0.25033 | 776 ft | 138 kts | 76° |
| 2026-05-05 13:22 | 51.14204 | -0.23529 | 580 ft | 140 kts | 76° |
| 2026-05-05 13:22 | 51.14401 | -0.22032 | 416 ft | 137 kts | 78° |
| 2026-05-05 13:23 | 51.14607 | -0.20542 | 253 ft | 138 kts | 78° |
| 2026-05-05 13:23 | 51.14798 | -0.19152 | 210 ft | 109 kts | 77° |
| 2026-05-05 13:23 | 51.14924 | -0.18248 | 204 ft | 54 kts | 77° |
| 2026-05-05 13:23 | 51.15044 | -0.17817 | 213 ft | 22 kts | 50° |
| 2026-05-05 13:24 | 51.15124 | -0.17758 | 205 ft | 10 kts | 354° |
| 2026-05-05 13:24 | 51.15184 | -0.17769 | 211 ft | 8 kts | 353° |
| 2026-05-05 13:24 | 51.15234 | -0.17772 | 208 ft | 7 kts | 17° |
| 2026-05-05 13:24 | 51.15266 | -0.17704 | 206 ft | 9 kts | 72° |
| 2026-05-05 13:25 | 51.15281 | -0.17591 | 204 ft | 12 kts | 78° |
| 2026-05-05 13:25 | 51.15297 | -0.17454 | 204 ft | 13 kts | 81° |
| 2026-05-05 13:25 | 51.15345 | -0.17369 | 205 ft | 12 kts | 0° |
| 2026-05-05 13:25 | 51.15426 | -0.17395 | 204 ft | 10 kts | 346° |
| 2026-05-05 13:26 | 51.15491 | -0.17420 | 204 ft | 9 kts | 348° |
| 2026-05-05 13:26 | 51.15539 | -0.17463 | 206 ft | 7 kts | 298° |
| 2026-05-05 13:26 | 51.15535 | -0.17536 | 207 ft | 6 kts | 258° |
| 2026-05-05 13:26 | 51.15537 | -0.17592 | 206 ft | 4 kts | 314° |
| 2026-05-05 13:27 | 51.15561 | -0.17610 | 207 ft | 3 kts | 342° |
| 2026-05-05 13:27 | 51.15580 | -0.17617 | 214 ft | 2 kts | 347° |
| 2026-05-05 13:27 | 51.15590 | -0.17620 | 204 ft | 0 kts | 347° |
| 2026-05-05 13:27 | 51.15591 | -0.17621 | 204 ft | 0 kts | 347° |